createdAt,value
2018-09-11T00:02:07.232Z,78.52
2018-09-11T00:04:35.935Z,78.74
2018-09-11T00:07:04.244Z,78.16
2018-09-11T00:09:32.560Z,78.63
2018-09-11T00:12:00.888Z,78.41
2018-09-11T00:14:29.239Z,79.14
2018-09-11T00:16:57.531Z,79.16
2018-09-11T00:19:25.903Z,78.45
2018-09-11T00:21:54.488Z,78.54
2018-09-11T00:24:22.809Z,79.33
2018-09-11T00:26:51.112Z,79.32
2018-09-11T00:29:19.527Z,78.91
2018-09-11T00:31:47.963Z,78.75
2018-09-11T00:34:16.283Z,78.96
2018-09-11T00:36:44.583Z,79.53
2018-09-11T00:39:12.908Z,79.08
2018-09-11T00:41:41.220Z,79.45
2018-09-11T00:44:09.549Z,79.63
2018-09-11T00:46:37.863Z,79.23
2018-09-11T00:49:06.203Z,80.11
2018-09-11T00:51:34.506Z,80.30
2018-09-11T00:54:02.800Z,80.42
2018-09-11T00:56:31.440Z,81.29
2018-09-11T00:58:59.731Z,81.18
2018-09-11T01:01:28.131Z,80.37
2018-09-11T01:03:56.378Z,80.51
2018-09-11T01:06:24.709Z,80.94
2018-09-11T01:08:53.007Z,79.80
2018-09-11T01:11:21.384Z,80.65
2018-09-11T01:13:49.720Z,80.72
2018-09-11T01:16:18.097Z,80.83
2018-09-11T01:18:46.408Z,79.90
2018-09-11T01:21:14.740Z,79.98
2018-09-11T01:23:43.032Z,80.23
2018-09-11T01:26:11.343Z,80.01
2018-09-11T01:28:39.631Z,80.29
2018-09-11T01:31:07.971Z,80.48
2018-09-11T01:33:36.283Z,81.35
2018-09-11T01:36:04.651Z,81.27
2018-09-11T01:38:32.986Z,80.84
2018-09-11T01:41:01.316Z,81.13
2018-09-11T01:43:29.660Z,81.18
2018-09-11T01:45:57.978Z,81.13
2018-09-11T01:48:26.283Z,81.18
2018-09-11T01:50:54.612Z,81.61
2018-09-11T01:53:22.927Z,81.60
2018-09-11T01:55:51.255Z,80.97
2018-09-11T01:58:19.572Z,81.50
2018-09-11T02:00:48.315Z,81.38
2018-09-11T02:03:18.624Z,81.73
2018-09-11T02:05:46.938Z,81.25
2018-09-11T02:08:15.226Z,81.40
2018-09-11T02:10:43.547Z,81.43
2018-09-11T02:13:11.832Z,81.53
2018-09-11T02:15:40.202Z,81.74
2018-09-11T02:18:08.494Z,81.89
2018-09-11T02:20:36.832Z,82.21
2018-09-11T02:23:05.135Z,82.35
2018-09-11T02:25:33.479Z,82.94
2018-09-11T02:28:01.780Z,82.11
2018-09-11T02:30:30.100Z,81.63
2018-09-11T02:32:58.408Z,81.29
2018-09-11T02:35:26.736Z,81.37
2018-09-11T02:37:55.029Z,81.76
2018-09-11T02:40:23.355Z,81.87
2018-09-11T02:42:51.711Z,82.32
2018-09-11T02:45:22.806Z,81.98
2018-09-11T02:47:51.955Z,81.96
2018-09-11T02:50:20.293Z,81.54
2018-09-11T02:52:48.594Z,81.86
2018-09-11T02:55:16.924Z,81.86
2018-09-11T02:57:45.235Z,82.59
2018-09-11T03:00:13.591Z,82.50
2018-09-11T03:02:41.884Z,82.54
2018-09-11T03:05:10.230Z,81.98
2018-09-11T03:07:38.563Z,82.67
2018-09-11T03:10:07.000Z,82.04
2018-09-11T03:12:35.328Z,83.33
2018-09-11T03:15:03.708Z,83.34
2018-09-11T03:17:32.022Z,83.75
2018-09-11T03:20:00.320Z,83.32
2018-09-11T03:22:28.651Z,82.77
2018-09-11T03:24:56.953Z,82.60
2018-09-11T03:27:25.262Z,82.32
2018-09-11T03:29:53.564Z,82.79
2018-09-11T03:32:21.903Z,82.95
2018-09-11T03:34:50.216Z,82.71
2018-09-11T03:37:18.524Z,82.53
2018-09-11T03:39:46.860Z,82.24
2018-09-11T03:42:15.217Z,81.93
2018-09-11T03:44:43.529Z,82.81
2018-09-11T03:47:11.852Z,82.77
2018-09-11T03:49:40.162Z,82.71
2018-09-11T03:52:08.503Z,82.80
2018-09-11T03:54:36.809Z,81.74
2018-09-11T03:57:05.346Z,82.10
2018-09-11T03:59:33.652Z,83.25
2018-09-11T04:02:01.999Z,83.48
2018-09-11T04:04:30.343Z,83.18
2018-09-11T04:06:58.807Z,83.50
2018-09-11T04:09:27.115Z,82.96
2018-09-11T04:11:55.451Z,83.50
2018-09-11T04:14:23.763Z,82.95
2018-09-11T04:16:52.087Z,83.52
2018-09-11T04:19:20.384Z,82.61
2018-09-11T04:21:49.135Z,82.22
2018-09-11T04:24:17.436Z,82.89
2018-09-11T04:26:45.760Z,81.69
2018-09-11T04:29:14.133Z,81.91
2018-09-11T04:31:42.492Z,82.75
2018-09-11T04:34:10.836Z,83.43
2018-09-11T04:36:39.159Z,81.29
2018-09-11T04:39:08.228Z,82.77
2018-09-11T04:41:36.539Z,81.95
2018-09-11T04:44:04.851Z,82.07
2018-09-11T04:46:33.471Z,81.83
2018-09-11T04:49:02.084Z,82.60
2018-09-11T04:51:30.397Z,82.93
2018-09-11T04:53:58.709Z,82.67
2018-09-11T04:56:27.047Z,82.51
2018-09-11T04:58:55.364Z,82.29
2018-09-11T05:01:23.691Z,82.03
2018-09-11T05:03:51.983Z,82.03
2018-09-11T05:06:20.307Z,81.69
2018-09-11T05:08:49.079Z,81.49
2018-09-11T05:11:17.430Z,81.36
2018-09-11T05:13:46.263Z,81.04
2018-09-11T05:16:14.595Z,80.99
2018-09-11T05:18:42.911Z,81.13
2018-09-11T05:21:11.220Z,80.84
2018-09-11T05:23:39.531Z,80.65
2018-09-11T05:26:07.844Z,80.57
2018-09-11T05:28:36.172Z,80.20
2018-09-11T05:31:04.487Z,79.63
2018-09-11T05:33:33.208Z,79.24
2018-09-11T05:36:01.539Z,78.90
2018-09-11T05:38:29.872Z,78.41
2018-09-11T05:40:58.164Z,77.67
2018-09-11T05:43:26.475Z,77.86
2018-09-11T05:45:55.168Z,77.34
2018-09-11T05:48:23.502Z,77.11
2018-09-11T05:50:51.836Z,77.35
2018-09-11T05:53:20.150Z,77.00
2018-09-11T05:55:48.455Z,76.63
2018-09-11T05:58:16.819Z,76.51
2018-09-11T06:00:45.087Z,75.72
2018-09-11T06:03:13.432Z,75.73
2018-09-11T06:05:41.759Z,75.13
2018-09-11T06:08:10.090Z,73.22
2018-09-11T06:10:38.398Z,69.54
2018-09-11T06:13:06.727Z,63.07
2018-09-11T06:15:35.048Z,57.20
2018-09-11T06:18:03.399Z,55.88
2018-09-11T06:20:31.751Z,53.66
2018-09-11T06:23:00.051Z,52.17
2018-09-11T06:25:28.348Z,50.29
2018-09-11T06:27:56.667Z,51.12
2018-09-11T06:30:24.971Z,50.34
2018-09-11T06:32:53.299Z,48.43
2018-09-11T06:35:21.737Z,46.98
2018-09-11T06:37:50.060Z,48.38
2018-09-11T06:40:18.379Z,45.02
2018-09-11T06:42:46.719Z,48.44
2018-09-11T06:45:15.052Z,46.12
2018-09-11T06:47:43.374Z,47.39
2018-09-11T06:50:11.691Z,44.89
2018-09-11T06:52:40.399Z,48.46
2018-09-11T06:55:08.719Z,48.54
2018-09-11T06:57:37.039Z,47.59
2018-09-11T07:00:05.384Z,48.77
2018-09-11T07:02:33.696Z,46.79
2018-09-11T07:05:02.024Z,48.10
2018-09-11T07:07:30.347Z,50.72
2018-09-11T07:09:58.663Z,48.22
2018-09-11T07:12:27.439Z,44.41
2018-09-11T07:14:55.916Z,47.50
2018-09-11T07:17:24.391Z,47.72
2018-09-11T07:19:52.854Z,48.32
2018-09-11T07:22:21.052Z,47.61
2018-09-11T07:24:49.383Z,46.75
2018-09-11T07:27:17.723Z,44.20
2018-09-11T07:29:46.067Z,41.48
2018-09-11T07:32:14.452Z,43.38
2018-09-11T07:34:42.740Z,43.12
2018-09-11T07:37:11.048Z,44.63
2018-09-11T07:39:39.375Z,43.33
2018-09-11T07:42:07.699Z,42.28
2018-09-11T07:44:35.988Z,44.78
2018-09-11T07:47:04.314Z,45.09
2018-09-11T07:49:32.659Z,42.43
2018-09-11T07:52:00.964Z,43.90
2018-09-11T07:54:29.282Z,35.99
2018-09-11T07:56:57.959Z,32.44
2018-09-11T07:59:26.535Z,35.72
2018-09-11T08:01:54.839Z,38.03
2018-09-11T08:04:23.751Z,41.06
2018-09-11T08:06:52.191Z,43.98
2018-09-11T08:09:20.987Z,41.40
2018-09-11T08:11:49.370Z,41.75
2018-09-11T08:14:17.680Z,42.76
2018-09-11T08:16:45.990Z,45.45
2018-09-11T08:19:14.328Z,47.44
2018-09-11T08:21:42.627Z,44.20
2018-09-11T08:24:11.767Z,41.56
2018-09-11T08:26:40.063Z,43.94
2018-09-11T08:29:08.854Z,43.86
2018-09-11T08:31:37.168Z,43.35
2018-09-11T08:34:05.516Z,41.03
2018-09-11T08:36:34.034Z,41.91
2018-09-11T08:39:02.532Z,41.17
2018-09-11T08:41:30.847Z,41.66
2018-09-11T08:43:59.171Z,39.47
2018-09-11T08:46:27.494Z,40.82
2018-09-11T08:48:55.951Z,38.60
2018-09-11T08:51:24.247Z,41.01
2018-09-11T08:53:52.561Z,44.58
2018-09-11T08:56:20.859Z,42.40
2018-09-11T08:58:49.219Z,41.90
2018-09-11T09:01:17.875Z,41.31
2018-09-11T09:03:46.567Z,42.27
2018-09-11T09:06:14.872Z,42.98
2018-09-11T09:08:43.212Z,40.85
2018-09-11T09:11:11.771Z,39.77
2018-09-11T09:13:40.104Z,41.29
2018-09-11T09:16:08.399Z,39.75
2018-09-11T09:18:36.716Z,38.93
2018-09-11T09:21:05.516Z,37.92
2018-09-11T09:23:33.780Z,33.80
2018-09-11T09:26:02.124Z,34.81
2018-09-11T09:28:30.449Z,32.38
2018-09-11T09:30:58.819Z,33.91
2018-09-11T09:33:27.140Z,32.81
2018-09-11T09:35:55.444Z,32.88
2018-09-11T09:38:23.779Z,29.73
2018-09-11T09:40:52.083Z,28.41
2018-09-11T09:43:20.404Z,29.69
2018-09-11T09:45:49.015Z,30.24
2018-09-11T09:48:17.575Z,29.16
2018-09-11T09:50:45.961Z,31.87
2018-09-11T09:53:14.284Z,30.98
2018-09-11T09:55:42.633Z,28.44
2018-09-11T09:58:10.943Z,28.31
2018-09-11T10:00:44.479Z,32.06
2018-09-11T10:03:12.791Z,26.67
2018-09-11T10:05:42.685Z,27.60
2018-09-11T10:08:10.979Z,28.15
2018-09-11T10:10:39.308Z,23.73
2018-09-11T10:13:07.955Z,26.47
2018-09-11T10:15:36.268Z,28.99
2018-09-11T10:18:04.603Z,27.19
2018-09-11T10:20:33.591Z,27.19
2018-09-11T10:23:01.898Z,26.70
2018-09-11T10:25:30.209Z,29.08
2018-09-11T10:27:58.510Z,29.44
2018-09-11T10:30:26.858Z,27.03
2018-09-11T10:32:55.143Z,26.61
2018-09-11T10:35:23.458Z,25.51
2018-09-11T10:37:51.763Z,28.15
2018-09-11T10:40:20.096Z,26.18
2018-09-11T10:42:48.404Z,27.75
2018-09-11T10:45:16.772Z,25.35
2018-09-11T10:47:45.107Z,28.12
2018-09-11T10:50:13.415Z,26.19
2018-09-11T10:52:41.722Z,24.87
2018-09-11T10:55:10.052Z,24.03
2018-09-11T10:57:38.362Z,23.75
2018-09-11T11:00:06.788Z,24.73
2018-09-11T11:02:35.095Z,23.74
2018-09-11T11:05:03.748Z,23.93
2018-09-11T11:07:32.047Z,25.16
2018-09-11T11:10:00.461Z,26.54
2018-09-11T11:12:28.736Z,24.50
2018-09-11T11:14:57.056Z,27.73
2018-09-11T11:17:25.372Z,24.94
2018-09-11T11:19:54.279Z,27.35
2018-09-11T11:22:22.612Z,27.63
2018-09-11T11:24:50.922Z,29.07
2018-09-11T11:27:19.299Z,30.36
2018-09-11T11:29:47.790Z,28.73
2018-09-11T11:32:16.307Z,29.43
2018-09-11T11:34:44.651Z,29.82
2018-09-11T11:37:13.108Z,29.67
2018-09-11T11:39:41.287Z,30.32
2018-09-11T11:42:09.769Z,31.72
2018-09-11T11:44:38.047Z,33.64
2018-09-11T11:47:06.987Z,33.44
2018-09-11T11:49:35.328Z,34.70
2018-09-11T11:52:03.660Z,31.69
2018-09-11T11:54:31.975Z,31.64
2018-09-11T11:57:00.288Z,33.86
2018-09-11T11:59:28.602Z,32.30
2018-09-11T12:01:56.918Z,31.93
2018-09-11T12:04:25.264Z,31.74
2018-09-11T12:06:53.800Z,31.86
2018-09-11T12:09:22.124Z,32.67
2018-09-11T12:11:50.436Z,33.68
2018-09-11T12:14:18.739Z,33.02
2018-09-11T12:16:47.082Z,31.62
2018-09-11T12:19:15.388Z,30.28
2018-09-11T12:21:43.709Z,30.18
2018-09-11T12:24:12.340Z,28.70
2018-09-11T12:26:40.881Z,29.86
2018-09-11T12:29:09.184Z,33.80
2018-09-11T12:31:37.511Z,32.66
2018-09-11T12:34:05.820Z,33.67
2018-09-11T12:36:34.134Z,32.42
2018-09-11T12:39:02.439Z,31.01
2018-09-11T12:41:30.770Z,31.03
2018-09-11T12:43:59.073Z,32.98
2018-09-11T12:46:27.783Z,31.58
2018-09-11T12:48:55.716Z,31.41
2018-09-11T12:51:24.027Z,32.34
2018-09-11T12:53:52.336Z,31.65
2018-09-11T12:56:20.654Z,31.31
2018-09-11T12:58:48.967Z,30.86
2018-09-11T13:01:17.759Z,30.25
2018-09-11T13:03:46.043Z,29.96
2018-09-11T13:06:14.394Z,33.32
2018-09-11T13:08:43.215Z,32.77
2018-09-11T13:11:11.556Z,31.14
2018-09-11T13:13:39.862Z,29.36
2018-09-11T13:16:08.207Z,30.53
2018-09-11T13:18:36.595Z,30.83
2018-09-11T13:21:04.963Z,29.80
2018-09-11T13:23:33.276Z,29.78
2018-09-11T13:26:01.596Z,29.40
2018-09-11T13:28:29.907Z,30.37
2018-09-11T13:30:58.239Z,30.51
2018-09-11T13:33:26.551Z,32.49
2018-09-11T13:35:54.958Z,33.25
2018-09-11T13:38:23.276Z,32.75
2018-09-11T13:40:51.611Z,33.27
2018-09-11T13:43:19.933Z,31.94
2018-09-11T13:45:48.280Z,30.24
2018-09-11T13:48:16.961Z,34.63
2018-09-11T13:50:45.414Z,33.69
2018-09-11T13:53:13.731Z,32.99
2018-09-11T13:55:42.087Z,31.72
2018-09-11T13:58:10.767Z,32.34
2018-09-11T14:00:39.094Z,31.84
2018-09-11T14:03:07.416Z,31.50
2018-09-11T14:05:35.744Z,30.51
2018-09-11T14:08:04.099Z,28.74
2018-09-11T14:10:32.699Z,29.83
2018-09-11T14:13:01.011Z,30.80
2018-09-11T14:15:29.336Z,31.38
2018-09-11T14:17:57.622Z,30.98
2018-09-11T14:20:25.927Z,32.13
2018-09-11T14:22:54.249Z,31.06
2018-09-11T14:25:22.567Z,29.68
2018-09-11T14:27:51.352Z,30.77
2018-09-11T14:30:19.672Z,30.92
2018-09-11T14:32:48.095Z,32.34
2018-09-11T14:35:16.460Z,31.35
2018-09-11T14:37:44.784Z,31.31
2018-09-11T14:40:13.084Z,30.14
2018-09-11T14:42:41.442Z,31.87
2018-09-11T14:45:09.744Z,32.23
2018-09-11T14:47:42.548Z,31.42
2018-09-11T14:50:11.565Z,31.89
2018-09-11T14:52:39.901Z,32.22
2018-09-11T14:55:08.844Z,31.41
2018-09-11T14:57:37.200Z,30.66
2018-09-11T15:00:06.153Z,30.33
2018-09-11T15:02:34.500Z,29.97
2018-09-11T15:05:03.169Z,29.74
2018-09-11T15:07:31.504Z,29.90
2018-09-11T15:10:00.316Z,30.58
2018-09-11T15:12:28.800Z,30.76
2018-09-11T15:14:57.167Z,30.27
2018-09-11T15:17:25.447Z,29.71
2018-09-11T15:19:53.955Z,30.20
2018-09-11T15:22:22.611Z,32.10
2018-09-11T15:24:50.919Z,30.27
2018-09-11T15:27:19.251Z,30.84
2018-09-11T15:29:47.588Z,29.98
2018-09-11T15:32:15.975Z,29.87
2018-09-11T15:34:44.615Z,29.70
2018-09-11T15:37:12.930Z,29.88
2018-09-11T15:39:41.236Z,28.14
2018-09-11T15:42:09.559Z,27.89
2018-09-11T15:44:37.884Z,28.60
2018-09-11T15:47:06.266Z,29.17
2018-09-11T15:49:34.521Z,29.68
2018-09-11T15:52:03.899Z,28.78
2018-09-11T15:54:32.200Z,28.43
2018-09-11T15:57:00.631Z,29.81
2018-09-11T15:59:29.282Z,29.88
2018-09-11T16:01:57.604Z,29.39
2018-09-11T16:04:26.507Z,29.24
2018-09-11T16:06:54.868Z,31.43
2018-09-11T16:09:23.403Z,30.53
2018-09-11T16:11:51.741Z,31.21
2018-09-11T16:14:20.055Z,32.37
2018-09-11T16:16:48.367Z,32.20
2018-09-11T16:19:16.779Z,33.10
2018-09-11T16:21:45.313Z,33.12
2018-09-11T16:24:13.784Z,33.83
2018-09-11T16:26:42.108Z,33.64
2018-09-11T16:29:10.407Z,33.01
2018-09-11T16:31:38.744Z,33.51
2018-09-11T16:34:07.078Z,34.64
2018-09-11T16:36:35.412Z,34.19
2018-09-11T16:39:05.483Z,35.35
2018-09-11T16:41:33.800Z,35.06
2018-09-11T16:44:02.103Z,34.73
2018-09-11T16:46:30.463Z,35.72
2018-09-11T16:48:58.749Z,35.68
2018-09-11T16:51:27.063Z,35.57
2018-09-11T16:53:57.900Z,36.03
2018-09-11T16:56:27.042Z,35.60
2018-09-11T16:58:55.963Z,36.23
2018-09-11T17:01:26.546Z,37.39
2018-09-11T17:03:55.510Z,37.10
2018-09-11T17:06:24.490Z,37.16
2018-09-11T17:08:53.835Z,37.92
2018-09-11T17:11:22.731Z,38.25
2018-09-11T17:13:52.853Z,37.74
2018-09-11T17:16:21.985Z,36.96
2018-09-11T17:18:51.172Z,37.65
2018-09-11T17:21:19.479Z,38.18
2018-09-11T17:23:47.804Z,38.15
2018-09-11T17:26:16.549Z,39.09
2018-09-11T17:28:45.852Z,39.36
2018-09-11T17:31:16.107Z,39.20
2018-09-11T17:33:45.129Z,38.42
2018-09-11T17:36:14.292Z,39.10
2018-09-11T17:38:43.636Z,38.93
2018-09-11T17:41:12.985Z,39.68
2018-09-11T17:43:41.388Z,39.54
2018-09-11T17:46:09.733Z,39.59
2018-09-11T17:48:38.085Z,39.71
2018-09-11T17:51:06.456Z,40.35
2018-09-11T17:53:34.798Z,39.36
2018-09-11T17:56:03.107Z,40.09
2018-09-11T17:58:31.436Z,41.19
2018-09-11T18:00:59.723Z,40.23
2018-09-11T18:03:28.063Z,41.37
2018-09-11T18:05:56.364Z,41.60
2018-09-11T18:08:24.680Z,41.06
2018-09-11T18:10:52.973Z,41.92
2018-09-11T18:13:21.344Z,42.12
2018-09-11T18:15:49.671Z,43.06
2018-09-11T18:18:18.010Z,42.98
2018-09-11T18:20:46.307Z,43.06
2018-09-11T18:23:14.708Z,42.90
2018-09-11T18:25:43.072Z,43.73
2018-09-11T18:28:11.403Z,43.09
2018-09-11T18:30:40.136Z,43.97
2018-09-11T18:33:08.460Z,44.32
2018-09-11T18:35:36.769Z,44.26
2018-09-11T18:38:05.190Z,44.67
2018-09-11T18:40:33.447Z,44.81
2018-09-11T18:43:03.144Z,45.11
2018-09-11T18:45:32.630Z,45.16
2018-09-11T18:48:06.466Z,44.39
2018-09-11T18:50:36.282Z,44.88
2018-09-11T18:53:07.841Z,45.70
2018-09-11T18:55:36.936Z,47.28
2018-09-11T18:58:07.114Z,46.65
2018-09-11T19:00:36.724Z,47.44
2018-09-11T19:03:06.456Z,47.31
2018-09-11T19:05:36.758Z,47.40
2018-09-11T19:08:05.879Z,49.06
2018-09-11T19:10:34.391Z,48.65
2018-09-11T19:13:05.836Z,50.59
2018-09-11T19:15:35.023Z,50.27
2018-09-11T19:18:04.284Z,50.76
2018-09-11T19:20:33.732Z,52.10
2018-09-11T19:23:03.411Z,53.21
2018-09-11T19:25:32.381Z,51.98
2018-09-11T19:28:01.460Z,51.97
2018-09-11T19:30:30.236Z,52.83
2018-09-11T19:32:59.430Z,53.13
2018-09-11T19:35:28.136Z,53.14
2018-09-11T19:37:56.489Z,52.84
2018-09-11T19:40:25.205Z,53.02
2018-09-11T19:42:53.885Z,53.64
2018-09-11T19:45:22.231Z,53.07
2018-09-11T19:47:50.576Z,53.04
2018-09-11T19:50:18.961Z,53.26
2018-09-11T19:52:47.175Z,53.05
2018-09-11T19:55:16.048Z,53.91
2018-09-11T19:57:44.947Z,53.83
2018-09-11T20:00:15.967Z,53.88
2018-09-11T20:02:45.732Z,55.41
2018-09-11T20:05:15.708Z,56.20
2018-09-11T20:07:44.718Z,57.79
2018-09-11T20:10:13.559Z,57.91
2018-09-11T20:12:42.089Z,57.92
2018-09-11T20:15:11.077Z,58.75
2018-09-11T20:17:39.653Z,59.07
2018-09-11T20:20:08.632Z,58.31
2018-09-11T20:22:37.675Z,58.00
2018-09-11T20:25:07.484Z,58.21
2018-09-11T20:27:37.456Z,57.69
2018-09-11T20:30:08.028Z,57.58
2018-09-11T20:32:36.751Z,57.20
2018-09-11T20:35:05.619Z,56.85
2018-09-11T20:37:34.471Z,57.16
2018-09-11T20:40:03.746Z,55.93
2018-09-11T20:42:32.160Z,56.16
2018-09-11T20:45:00.482Z,55.75
2018-09-11T20:47:28.807Z,55.69
2018-09-11T20:49:57.163Z,55.30
2018-09-11T20:52:25.504Z,55.55
2018-09-11T20:54:53.799Z,55.83
2018-09-11T20:57:22.132Z,56.75
2018-09-11T20:59:50.471Z,57.25
2018-09-11T21:02:18.784Z,57.22
2018-09-11T21:04:47.092Z,57.31
2018-09-11T21:07:15.846Z,56.67
2018-09-11T21:09:44.184Z,56.57
2018-09-11T21:12:12.519Z,56.44
2018-09-11T21:14:40.822Z,56.35
2018-09-11T21:17:09.168Z,56.96
2018-09-11T21:19:37.831Z,56.33
2018-09-11T21:22:06.159Z,56.88
2018-09-11T21:24:34.512Z,57.38
2018-09-11T21:27:02.951Z,58.30
2018-09-11T21:29:31.295Z,57.93
2018-09-11T21:31:59.603Z,57.51
2018-09-11T21:34:28.660Z,57.92
2018-09-11T21:36:56.956Z,58.49
2018-09-11T21:39:25.299Z,57.86
2018-09-11T21:41:53.579Z,58.55
2018-09-11T21:44:21.908Z,58.59
2018-09-11T21:46:50.224Z,58.57
2018-09-11T21:49:18.551Z,58.81
2018-09-11T21:51:46.865Z,58.60
2018-09-11T21:54:15.198Z,58.80
2018-09-11T21:56:43.511Z,58.87
2018-09-11T21:59:12.111Z,58.31
2018-09-11T22:01:44.375Z,59.24
2018-09-11T22:04:13.076Z,59.01
2018-09-11T22:06:41.368Z,59.56
2018-09-11T22:09:10.866Z,59.04
2018-09-11T22:11:39.530Z,59.75
2018-09-11T22:14:08.218Z,59.16
2018-09-11T22:16:36.571Z,59.55
2018-09-11T22:19:05.099Z,60.18
2018-09-11T22:21:33.650Z,59.98
2018-09-11T22:24:01.988Z,59.36
2018-09-11T22:26:30.291Z,59.81
2018-09-11T22:28:58.681Z,60.16
2018-09-11T22:31:26.996Z,59.93
2018-09-11T22:33:55.296Z,59.96
2018-09-11T22:36:23.859Z,60.44
2018-09-11T22:38:52.180Z,60.51
2018-09-11T22:41:20.504Z,60.67
2018-09-11T22:43:49.147Z,60.22
2018-09-11T22:46:17.496Z,61.12
2018-09-11T22:48:45.787Z,61.19
2018-09-11T22:51:14.118Z,61.67
2018-09-11T22:53:42.431Z,61.90
2018-09-11T22:56:10.737Z,62.47
2018-09-11T22:58:39.055Z,62.55
2018-09-11T23:01:07.388Z,61.79
2018-09-11T23:03:35.703Z,62.30
2018-09-11T23:06:04.014Z,62.64
2018-09-11T23:08:32.355Z,62.68
2018-09-11T23:11:00.695Z,63.39
2018-09-11T23:13:29.007Z,63.52
2018-09-11T23:15:57.548Z,63.14
2018-09-11T23:18:25.860Z,63.07
2018-09-11T23:20:54.200Z,64.02
2018-09-11T23:23:22.496Z,63.41
2018-09-11T23:25:50.848Z,63.91
2018-09-11T23:28:19.160Z,63.75
2018-09-11T23:30:47.544Z,63.67
2018-09-11T23:33:15.843Z,63.98
2018-09-11T23:35:44.248Z,63.96
2018-09-11T23:38:12.567Z,64.08
2018-09-11T23:40:40.919Z,64.10
2018-09-11T23:43:09.229Z,63.92
2018-09-11T23:45:37.540Z,64.05
2018-09-11T23:48:06.056Z,64.44
2018-09-11T23:50:34.627Z,64.75
2018-09-11T23:53:02.926Z,64.37
2018-09-11T23:55:31.263Z,65.00
2018-09-11T23:57:59.843Z,65.40
